sensor_id;sensor_type;location;lat;lon;timestamp;pressure;altitude;pressure_sealevel;temperature;humidity
11049;BME280;5577;42.706;23.160;2022-12-10T00:01:12;93474.03;;;13.07;100.00
11049;BME280;5577;42.706;23.160;2022-12-10T00:03:56;93475.91;;;13.03;100.00
11049;BME280;5577;42.706;23.160;2022-12-10T00:06:41;93471.72;;;12.98;100.00
11049;BME280;5577;42.706;23.160;2022-12-10T00:09:26;93468.63;;;12.96;100.00
11049;BME280;5577;42.706;23.160;2022-12-10T00:12:10;93464.47;;;12.92;100.00
11049;BME280;5577;42.706;23.160;2022-12-10T00:14:53;93472.06;;;12.86;100.00
11049;BME280;5577;42.706;23.160;2022-12-10T00:17:37;93472.03;;;12.83;100.00
11049;BME280;5577;42.706;23.160;2022-12-10T00:20:21;93486.06;;;12.76;100.00
11049;BME280;5577;42.706;23.160;2022-12-10T00:23:06;93484.13;;;12.70;100.00
11049;BME280;5577;42.706;23.160;2022-12-10T00:25:50;93477.31;;;12.76;100.00
11049;BME280;5577;42.706;23.160;2022-12-10T00:28:34;93461.72;;;12.67;100.00
11049;BME280;5577;42.706;23.160;2022-12-10T00:31:22;93484.13;;;12.77;100.00
11049;BME280;5577;42.706;23.160;2022-12-10T00:34:08;93480.38;;;12.78;100.00
11049;BME280;5577;42.706;23.160;2022-12-10T00:36:52;93491.72;;;12.78;100.00
11049;BME280;5577;42.706;23.160;2022-12-10T00:39:36;93472.78;;;12.80;100.00
11049;BME280;5577;42.706;23.160;2022-12-10T00:42:20;93477.69;;;12.71;100.00
11049;BME280;5577;42.706;23.160;2022-12-10T00:45:04;93479.53;;;12.63;100.00
11049;BME280;5577;42.706;23.160;2022-12-10T00:47:48;93473.44;;;12.56;100.00
11049;BME280;5577;42.706;23.160;2022-12-10T00:50:32;93475.66;;;12.43;100.00
11049;BME280;5577;42.706;23.160;2022-12-10T00:53:16;93473.78;;;12.40;100.00
11049;BME280;5577;42.706;23.160;2022-12-10T00:56:00;93474.91;;;12.43;100.00
11049;BME280;5577;42.706;23.160;2022-12-10T00:58:48;93469.97;;;12.41;100.00
11049;BME280;5577;42.706;23.160;2022-12-10T01:01:35;93478.59;;;12.24;100.00
11049;BME280;5577;42.706;23.160;2022-12-10T01:04:20;93473.91;;;12.00;100.00
11049;BME280;5577;42.706;23.160;2022-12-10T01:07:03;93481.00;;;11.86;100.00
11049;BME280;5577;42.706;23.160;2022-12-10T01:09:47;93488.22;;;11.85;100.00
11049;BME280;5577;42.706;23.160;2022-12-10T01:12:31;93495.03;;;11.83;100.00
11049;BME280;5577;42.706;23.160;2022-12-10T01:15:15;93472.72;;;11.94;100.00
11049;BME280;5577;42.706;23.160;2022-12-10T01:17:59;93492.59;;;12.18;100.00
11049;BME280;5577;42.706;23.160;2022-12-10T01:20:43;93470.69;;;12.35;100.00
11049;BME280;5577;42.706;23.160;2022-12-10T01:23:27;93493.81;;;12.34;100.00
11049;BME280;5577;42.706;23.160;2022-12-10T01:26:14;93474.88;;;12.39;100.00
11049;BME280;5577;42.706;23.160;2022-12-10T01:28:59;93453.59;;;12.25;100.00
11049;BME280;5577;42.706;23.160;2022-12-10T01:31:43;93477.13;;;12.30;100.00
11049;BME280;5577;42.706;23.160;2022-12-10T01:34:28;93479.78;;;12.34;100.00
11049;BME280;5577;42.706;23.160;2022-12-10T01:37:12;93468.06;;;12.38;100.00
11049;BME280;5577;42.706;23.160;2022-12-10T01:39:56;93471.84;;;12.37;100.00
11049;BME280;5577;42.706;23.160;2022-12-10T01:42:39;93471.09;;;12.33;100.00
11049;BME280;5577;42.706;23.160;2022-12-10T01:45:24;93472.94;;;12.29;100.00
11049;BME280;5577;42.706;23.160;2022-12-10T01:48:08;93480.03;;;12.08;100.00
11049;BME280;5577;42.706;23.160;2022-12-10T01:50:52;93476.16;;;11.91;100.00
11049;BME280;5577;42.706;23.160;2022-12-10T01:53:36;93464.41;;;11.92;100.00
11049;BME280;5577;42.706;23.160;2022-12-10T01:56:20;93487.88;;;11.90;100.00
11049;BME280;5577;42.706;23.160;2022-12-10T01:59:05;93457.94;;;11.90;100.00
11049;BME280;5577;42.706;23.160;2022-12-10T02:01:59;93470.38;;;11.82;100.00
11049;BME280;5577;42.706;23.160;2022-12-10T02:05:04;93475.28;;;11.77;100.00
11049;BME280;5577;42.706;23.160;2022-12-10T02:07:59;93486.19;;;11.68;100.00
11049;BME280;5577;42.706;23.160;2022-12-10T02:11:17;93445.00;;;11.81;100.00
11049;BME280;5577;42.706;23.160;2022-12-10T02:14:15;93443.53;;;11.91;100.00
11049;BME280;5577;42.706;23.160;2022-12-10T02:17:06;93440.66;;;12.13;100.00
11049;BME280;5577;42.706;23.160;2022-12-10T02:20:02;93452.47;;;12.26;100.00
11049;BME280;5577;42.706;23.160;2022-12-10T02:22:51;93428.09;;;12.07;100.00
11049;BME280;5577;42.706;23.160;2022-12-10T02:25:53;93437.69;;;12.32;100.00
11049;BME280;5577;42.706;23.160;2022-12-10T02:31:35;93437.00;;;12.49;100.00
11049;BME280;5577;42.706;23.160;2022-12-10T02:34:22;93438.16;;;12.52;100.00
11049;BME280;5577;42.706;23.160;2022-12-10T02:37:11;93437.38;;;12.48;100.00
11049;BME280;5577;42.706;23.160;2022-12-10T02:40:03;93415.72;;;12.35;100.00
11049;BME280;5577;42.706;23.160;2022-12-10T02:42:50;93439.66;;;12.46;100.00
11049;BME280;5577;42.706;23.160;2022-12-10T02:45:35;93449.50;;;12.49;100.00
11049;BME280;5577;42.706;23.160;2022-12-10T02:48:19;93436.25;;;12.49;100.00
11049;BME280;5577;42.706;23.160;2022-12-10T02:51:04;93434.31;;;12.39;100.00
11049;BME280;5577;42.706;23.160;2022-12-10T02:53:47;93442.22;;;12.28;100.00
11049;BME280;5577;42.706;23.160;2022-12-10T02:56:54;93447.13;;;12.19;100.00
11049;BME280;5577;42.706;23.160;2022-12-10T03:03:16;93434.41;;;11.81;100.00
11049;BME280;5577;42.706;23.160;2022-12-10T03:06:10;93452.44;;;11.62;100.00
11049;BME280;5577;42.706;23.160;2022-12-10T03:09:03;93418.78;;;11.25;100.00
11049;BME280;5577;42.706;23.160;2022-12-10T03:11:53;93448.75;;;11.29;100.00
11049;BME280;5577;42.706;23.160;2022-12-10T03:14:41;93445.84;;;11.45;100.00
11049;BME280;5577;42.706;23.160;2022-12-10T03:17:29;93439.38;;;11.42;100.00
11049;BME280;5577;42.706;23.160;2022-12-10T03:20:15;93440.16;;;11.43;100.00
11049;BME280;5577;42.706;23.160;2022-12-10T03:23:01;93442.81;;;11.43;100.00
11049;BME280;5577;42.706;23.160;2022-12-10T03:25:49;93446.19;;;11.40;100.00
11049;BME280;5577;42.706;23.160;2022-12-10T03:28:38;93431.78;;;11.41;100.00
11049;BME280;5577;42.706;23.160;2022-12-10T03:31:23;93422.38;;;11.47;100.00
11049;BME280;5577;42.706;23.160;2022-12-10T03:34:09;93433.06;;;11.57;100.00
11049;BME280;5577;42.706;23.160;2022-12-10T03:36:54;93437.28;;;11.62;100.00
11049;BME280;5577;42.706;23.160;2022-12-10T03:39:38;93414.50;;;11.57;100.00
11049;BME280;5577;42.706;23.160;2022-12-10T03:42:23;93412.25;;;11.56;100.00
11049;BME280;5577;42.706;23.160;2022-12-10T03:45:07;93409.97;;;11.54;100.00
11049;BME280;5577;42.706;23.160;2022-12-10T03:47:52;93384.59;;;11.60;100.00
11049;BME280;5577;42.706;23.160;2022-12-10T03:50:36;93408.56;;;11.71;100.00
11049;BME280;5577;42.706;23.160;2022-12-10T03:53:20;93395.00;;;11.83;100.00
11049;BME280;5577;42.706;23.160;2022-12-10T03:56:04;93396.19;;;11.89;100.00
11049;BME280;5577;42.706;23.160;2022-12-10T03:58:48;93402.22;;;11.86;100.00
11049;BME280;5577;42.706;23.160;2022-12-10T04:01:32;93425.03;;;12.01;100.00
11049;BME280;5577;42.706;23.160;2022-12-10T04:04:16;93425.09;;;12.12;100.00
11049;BME280;5577;42.706;23.160;2022-12-10T04:07:00;93425.09;;;12.15;100.00
11049;BME280;5577;42.706;23.160;2022-12-10T04:09:44;93454.72;;;12.24;100.00
11049;BME280;5577;42.706;23.160;2022-12-10T04:12:28;93437.28;;;12.27;100.00
11049;BME280;5577;42.706;23.160;2022-12-10T04:15:12;93431.25;;;12.30;100.00
11049;BME280;5577;42.706;23.160;2022-12-10T04:18:15;93431.66;;;12.32;100.00
11049;BME280;5577;42.706;23.160;2022-12-10T04:20:59;93437.69;;;12.32;100.00
11049;BME280;5577;42.706;23.160;2022-12-10T04:24:01;93437.28;;;12.27;100.00
11049;BME280;5577;42.706;23.160;2022-12-10T04:27:08;93437.97;;;12.06;100.00
11049;BME280;5577;42.706;23.160;2022-12-10T04:29:55;93434.81;;;11.87;100.00
11049;BME280;5577;42.706;23.160;2022-12-10T04:32:39;93441.53;;;11.74;100.00
11049;BME280;5577;42.706;23.160;2022-12-10T04:35:23;93435.78;;;11.64;100.00
11049;BME280;5577;42.706;23.160;2022-12-10T04:38:07;93441.78;;;11.58;100.00
11049;BME280;5577;42.706;23.160;2022-12-10T04:40:51;93442.13;;;11.53;100.00
11049;BME280;5577;42.706;23.160;2022-12-10T04:43:35;93439.44;;;11.49;100.00
11049;BME280;5577;42.706;23.160;2022-12-10T04:46:19;93445.03;;;11.37;100.00
11049;BME280;5577;42.706;23.160;2022-12-10T04:49:04;93434.81;;;11.39;100.00
11049;BME280;5577;42.706;23.160;2022-12-10T04:51:49;93436.63;;;11.28;100.00
11049;BME280;5577;42.706;23.160;2022-12-10T04:54:34;93440.00;;;11.25;100.00
11049;BME280;5577;42.706;23.160;2022-12-10T04:57:18;93451.72;;;11.21;100.00
11049;BME280;5577;42.706;23.160;2022-12-10T05:00:02;93450.16;;;11.16;100.00
11049;BME280;5577;42.706;23.160;2022-12-10T05:02:50;93450.09;;;11.13;100.00
11049;BME280;5577;42.706;23.160;2022-12-10T05:05:34;93443.28;;;11.12;100.00
11049;BME280;5577;42.706;23.160;2022-12-10T05:08:19;93438.34;;;11.10;100.00
11049;BME280;5577;42.706;23.160;2022-12-10T05:11:05;93440.63;;;11.12;100.00
11049;BME280;5577;42.706;23.160;2022-12-10T05:13:51;93428.47;;;11.04;100.00
11049;BME280;5577;42.706;23.160;2022-12-10T05:16:35;93452.69;;;11.06;100.00
11049;BME280;5577;42.706;23.160;2022-12-10T05:19:20;93444.75;;;11.06;100.00
11049;BME280;5577;42.706;23.160;2022-12-10T05:22:05;93446.66;;;11.09;100.00
11049;BME280;5577;42.706;23.160;2022-12-10T05:25:08;93456.91;;;11.10;100.00
11049;BME280;5577;42.706;23.160;2022-12-10T05:27:52;93442.88;;;11.10;100.00
11049;BME280;5577;42.706;23.160;2022-12-10T05:30:36;93466.09;;;11.23;100.00
11049;BME280;5577;42.706;23.160;2022-12-10T05:33:20;93460.16;;;11.33;100.00
11049;BME280;5577;42.706;23.160;2022-12-10T05:36:04;93463.59;;;11.37;100.00
11049;BME280;5577;42.706;23.160;2022-12-10T05:38:49;93468.16;;;11.44;100.00
11049;BME280;5577;42.706;23.160;2022-12-10T05:41:38;93440.34;;;11.20;100.00
11049;BME280;5577;42.706;23.160;2022-12-10T05:44:22;93475.38;;;11.47;100.00
11049;BME280;5577;42.706;23.160;2022-12-10T05:47:07;93485.97;;;11.43;100.00
11049;BME280;5577;42.706;23.160;2022-12-10T05:49:50;93478.81;;;11.47;100.00
11049;BME280;5577;42.706;23.160;2022-12-10T05:52:34;93483.69;;;11.45;100.00
11049;BME280;5577;42.706;23.160;2022-12-10T05:55:18;93478.41;;;11.45;100.00
11049;BME280;5577;42.706;23.160;2022-12-10T05:58:02;93471.59;;;11.48;100.00
11049;BME280;5577;42.706;23.160;2022-12-10T06:00:46;93472.44;;;11.55;100.00
11049;BME280;5577;42.706;23.160;2022-12-10T06:03:30;93472.16;;;11.68;100.00
11049;BME280;5577;42.706;23.160;2022-12-10T06:06:20;93483.59;;;11.79;100.00
11049;BME280;5577;42.706;23.160;2022-12-10T06:09:06;93469.56;;;11.75;100.00
11049;BME280;5577;42.706;23.160;2022-12-10T06:11:50;93474.88;;;11.75;100.00
11049;BME280;5577;42.706;23.160;2022-12-10T06:14:34;93468.06;;;11.74;100.00
11049;BME280;5577;42.706;23.160;2022-12-10T06:17:18;93465.72;;;11.65;100.00
11049;BME280;5577;42.706;23.160;2022-12-10T06:20:02;93448.66;;;11.66;100.00
11049;BME280;5577;42.706;23.160;2022-12-10T06:22:46;93440.63;;;11.55;100.00
11049;BME280;5577;42.706;23.160;2022-12-10T06:25:31;93436.78;;;11.46;100.00
11049;BME280;5577;42.706;23.160;2022-12-10T06:28:15;93444.34;;;11.47;100.00
11049;BME280;5577;42.706;23.160;2022-12-10T06:30:59;93427.16;;;11.31;100.00
11049;BME280;5577;42.706;23.160;2022-12-10T06:33:43;93445.09;;;11.48;100.00
11049;BME280;5577;42.706;23.160;2022-12-10T06:36:27;93461.44;;;11.53;100.00
11049;BME280;5577;42.706;23.160;2022-12-10T06:39:11;93453.25;;;11.69;100.00
11049;BME280;5577;42.706;23.160;2022-12-10T06:41:55;93459.72;;;11.75;100.00
11049;BME280;5577;42.706;23.160;2022-12-10T06:44:39;93456.34;;;11.82;100.00
11049;BME280;5577;42.706;23.160;2022-12-10T06:47:23;93471.16;;;11.86;100.00
11049;BME280;5577;42.706;23.160;2022-12-10T06:50:07;93469.34;;;11.94;100.00
11049;BME280;5577;42.706;23.160;2022-12-10T06:52:51;93470.44;;;11.93;100.00
11049;BME280;5577;42.706;23.160;2022-12-10T06:55:36;93486.41;;;12.00;100.00
11049;BME280;5577;42.706;23.160;2022-12-10T06:58:22;93469.47;;;12.15;100.00
11049;BME280;5577;42.706;23.160;2022-12-10T07:01:11;93457.38;;;12.24;100.00
11049;BME280;5577;42.706;23.160;2022-12-10T07:03:56;93434.16;;;12.07;100.00
11049;BME280;5577;42.706;23.160;2022-12-10T07:06:40;93459.69;;;12.33;100.00
11049;BME280;5577;42.706;23.160;2022-12-10T07:09:24;93457.06;;;12.43;100.00
11049;BME280;5577;42.706;23.160;2022-12-10T07:12:08;93441.19;;;12.50;100.00
11049;BME280;5577;42.706;23.160;2022-12-10T07:14:52;93445.72;;;12.46;100.00
11049;BME280;5577;42.706;23.160;2022-12-10T07:17:36;93435.47;;;12.41;100.00
11049;BME280;5577;42.706;23.160;2022-12-10T07:20:20;93434.69;;;12.37;100.00
11049;BME280;5577;42.706;23.160;2022-12-10T07:23:03;93439.59;;;12.32;100.00
11049;BME280;5577;42.706;23.160;2022-12-10T07:25:47;93432.00;;;12.30;100.00
11049;BME280;5577;42.706;23.160;2022-12-10T07:28:32;93442.25;;;12.32;100.00
11049;BME280;5577;42.706;23.160;2022-12-10T07:31:16;93440.34;;;12.29;100.00
11049;BME280;5577;42.706;23.160;2022-12-10T07:34:00;93440.38;;;12.36;100.00
11049;BME280;5577;42.706;23.160;2022-12-10T07:36:44;93451.03;;;12.46;100.00
11049;BME280;5577;42.706;23.160;2022-12-10T07:39:28;93449.53;;;12.52;100.00
11049;BME280;5577;42.706;23.160;2022-12-10T07:42:12;93452.19;;;12.56;100.00
11049;BME280;5577;42.706;23.160;2022-12-10T07:44:56;93438.94;;;12.63;100.00
11049;BME280;5577;42.706;23.160;2022-12-10T07:47:40;93449.59;;;12.70;100.00
11049;BME280;5577;42.706;23.160;2022-12-10T07:50:24;93454.56;;;12.75;100.00
11049;BME280;5577;42.706;23.160;2022-12-10T07:53:08;93427.63;;;12.80;100.00
11049;BME280;5577;42.706;23.160;2022-12-10T07:55:51;93438.66;;;12.89;100.00
11049;BME280;5577;42.706;23.160;2022-12-10T07:58:36;93418.91;;;12.90;100.00
11049;BME280;5577;42.706;23.160;2022-12-10T08:01:22;93420.09;;;12.99;100.00
11049;BME280;5577;42.706;23.160;2022-12-10T08:04:07;93396.91;;;12.96;100.00
11049;BME280;5577;42.706;23.160;2022-12-10T08:06:54;93379.84;;;12.97;100.00
11049;BME280;5577;42.706;23.160;2022-12-10T08:09:38;93396.97;;;13.10;100.00
11049;BME280;5577;42.706;23.160;2022-12-10T08:12:22;93396.22;;;13.10;100.00
11049;BME280;5577;42.706;23.160;2022-12-10T08:15:06;93386.75;;;13.16;100.00
11049;BME280;5577;42.706;23.160;2022-12-10T08:17:51;93401.16;;;13.29;100.00
11049;BME280;5577;42.706;23.160;2022-12-10T08:20:35;93394.72;;;13.30;100.00
11049;BME280;5577;42.706;23.160;2022-12-10T08:23:19;93382.19;;;13.27;100.00
11049;BME280;5577;42.706;23.160;2022-12-10T08:26:08;93374.22;;;13.20;100.00
11049;BME280;5577;42.706;23.160;2022-12-10T08:28:54;93389.38;;;13.33;100.00
11049;BME280;5577;42.706;23.160;2022-12-10T08:31:38;93386.75;;;13.37;100.00
11049;BME280;5577;42.706;23.160;2022-12-10T08:34:22;93373.81;;;13.49;100.00
11049;BME280;5577;42.706;23.160;2022-12-10T08:37:06;93399.97;;;13.93;100.00
11049;BME280;5577;42.706;23.160;2022-12-10T08:39:50;93399.88;;;14.28;100.00
11049;BME280;5577;42.706;23.160;2022-12-10T08:42:34;93401.75;;;14.42;100.00
11049;BME280;5577;42.706;23.160;2022-12-10T08:45:18;93397.19;;;14.38;100.00
11049;BME280;5577;42.706;23.160;2022-12-10T08:48:02;93398.53;;;14.75;100.00
11049;BME280;5577;42.706;23.160;2022-12-10T08:50:46;93377.31;;;14.61;100.00
11049;BME280;5577;42.706;23.160;2022-12-10T08:53:30;93379.03;;;14.95;100.00
11049;BME280;5577;42.706;23.160;2022-12-10T08:56:14;93371.34;;;15.04;100.00
11049;BME280;5577;42.706;23.160;2022-12-10T08:58:58;93358.16;;;15.41;100.00
11049;BME280;5577;42.706;23.160;2022-12-10T09:01:42;93325.72;;;15.83;100.00
11049;BME280;5577;42.706;23.160;2022-12-10T09:04:26;93322.19;;;15.53;100.00
11049;BME280;5577;42.706;23.160;2022-12-10T09:07:10;93325.19;;;15.62;100.00
11049;BME280;5577;42.706;23.160;2022-12-10T09:09:54;93321.91;;;15.84;100.00
11049;BME280;5577;42.706;23.160;2022-12-10T09:12:39;93313.75;;;15.95;100.00
11049;BME280;5577;42.706;23.160;2022-12-10T09:15:23;93329.53;;;15.82;100.00
11049;BME280;5577;42.706;23.160;2022-12-10T09:18:07;93328.66;;;15.92;100.00
11049;BME280;5577;42.706;23.160;2022-12-10T09:20:51;93311.66;;;16.13;100.00
11049;BME280;5577;42.706;23.160;2022-12-10T09:23:35;93317.06;;;16.39;100.00
11049;BME280;5577;42.706;23.160;2022-12-10T09:26:19;93307.75;;;16.51;100.00
11049;BME280;5577;42.706;23.160;2022-12-10T09:29:03;93300.00;;;16.86;100.00
11049;BME280;5577;42.706;23.160;2022-12-10T09:31:51;93308.72;;;17.17;100.00
11049;BME280;5577;42.706;23.160;2022-12-10T09:34:36;93292.63;;;17.67;100.00
11049;BME280;5577;42.706;23.160;2022-12-10T09:37:20;93298.84;;;17.60;100.00
11049;BME280;5577;42.706;23.160;2022-12-10T09:40:04;93302.13;;;17.48;100.00
11049;BME280;5577;42.706;23.160;2022-12-10T09:43:00;93302.00;;;17.05;100.00
11049;BME280;5577;42.706;23.160;2022-12-10T09:52:13;93288.31;;;18.31;100.00
11049;BME280;5577;42.706;23.160;2022-12-10T09:55:21;93288.16;;;18.58;100.00
11049;BME280;5577;42.706;23.160;2022-12-10T09:58:05;93287.34;;;18.77;100.00
11049;BME280;5577;42.706;23.160;2022-12-10T10:01:04;93287.19;;;17.90;100.00
11049;BME280;5577;42.706;23.160;2022-12-10T10:03:49;93270.47;;;17.43;100.00
11049;BME280;5577;42.706;23.160;2022-12-10T10:06:33;93234.22;;;17.15;100.00
11049;BME280;5577;42.706;23.160;2022-12-10T10:09:17;93277.50;;;17.57;100.00
11049;BME280;5577;42.706;23.160;2022-12-10T10:12:02;93272.84;;;17.38;100.00
11049;BME280;5577;42.706;23.160;2022-12-10T10:14:46;93268.44;;;16.51;100.00
11049;BME280;5577;42.706;23.160;2022-12-10T10:17:36;93261.22;;;16.52;100.00
11049;BME280;5577;42.706;23.160;2022-12-10T10:20:21;93246.50;;;16.90;100.00
11049;BME280;5577;42.706;23.160;2022-12-10T10:23:05;93240.63;;;17.22;100.00
11049;BME280;5577;42.706;23.160;2022-12-10T10:25:50;93240.09;;;17.07;100.00
11049;BME280;5577;42.706;23.160;2022-12-10T10:28:34;93235.81;;;17.36;100.00
11049;BME280;5577;42.706;23.160;2022-12-10T10:31:24;93229.69;;;17.36;100.00
11049;BME280;5577;42.706;23.160;2022-12-10T10:34:18;93226.56;;;17.17;100.00
11049;BME280;5577;42.706;23.160;2022-12-10T10:37:03;93218.00;;;17.26;100.00
11049;BME280;5577;42.706;23.160;2022-12-10T10:39:49;93205.50;;;16.73;100.00
11049;BME280;5577;42.706;23.160;2022-12-10T10:42:39;93216.31;;;16.40;100.00
11049;BME280;5577;42.706;23.160;2022-12-10T10:45:31;93218.06;;;16.23;100.00
11049;BME280;5577;42.706;23.160;2022-12-10T10:48:22;93221.19;;;16.18;100.00
11049;BME280;5577;42.706;23.160;2022-12-10T10:53:59;93213.41;;;16.01;100.00
11049;BME280;5577;42.706;23.160;2022-12-10T10:56:43;93214.50;;;16.33;100.00
11049;BME280;5577;42.706;23.160;2022-12-10T10:59:35;93226.78;;;16.57;100.00
11049;BME280;5577;42.706;23.160;2022-12-10T11:02:30;93202.31;;;16.32;100.00
11049;BME280;5577;42.706;23.160;2022-12-10T11:05:24;93195.28;;;15.89;100.00
11049;BME280;5577;42.706;23.160;2022-12-10T11:08:16;93190.38;;;15.84;100.00
11049;BME280;5577;42.706;23.160;2022-12-10T11:11:12;93178.81;;;15.94;100.00
11049;BME280;5577;42.706;23.160;2022-12-10T11:14:23;93168.75;;;15.75;100.00
11049;BME280;5577;42.706;23.160;2022-12-10T11:17:19;93168.00;;;15.74;100.00
11049;BME280;5577;42.706;23.160;2022-12-10T11:20:20;93172.09;;;15.82;100.00
11049;BME280;5577;42.706;23.160;2022-12-10T11:23:10;93161.94;;;16.00;100.00
11049;BME280;5577;42.706;23.160;2022-12-10T11:35:24;93166.16;;;16.24;100.00
11049;BME280;5577;42.706;23.160;2022-12-10T11:38:53;93160.47;;;15.96;100.00
11049;BME280;5577;42.706;23.160;2022-12-10T11:44:57;93170.66;;;15.74;100.00
11049;BME280;5577;42.706;23.160;2022-12-10T11:51:10;93156.78;;;15.56;100.00
11049;BME280;5577;42.706;23.160;2022-12-10T11:54:00;93156.19;;;15.42;100.00
11049;BME280;5577;42.706;23.160;2022-12-10T11:57:01;93153.72;;;15.58;100.00
11049;BME280;5577;42.706;23.160;2022-12-10T12:14:54;93104.78;;;15.08;100.00
11049;BME280;5577;42.706;23.160;2022-12-10T12:17:42;93117.50;;;14.93;100.00
11049;BME280;5577;42.706;23.160;2022-12-10T12:20:32;93115.97;;;14.92;100.00
11049;BME280;5577;42.706;23.160;2022-12-10T12:23:24;93113.88;;;14.73;100.00
11049;BME280;5577;42.706;23.160;2022-12-10T12:26:14;93109.25;;;14.77;100.00
11049;BME280;5577;42.706;23.160;2022-12-10T12:32:08;93083.13;;;14.69;100.00
11049;BME280;5577;42.706;23.160;2022-12-10T12:37:46;93071.69;;;14.68;100.00
11049;BME280;5577;42.706;23.160;2022-12-10T12:40:41;93074.75;;;14.67;100.00
11049;BME280;5577;42.706;23.160;2022-12-10T12:46:42;93067.69;;;14.50;100.00
11049;BME280;5577;42.706;23.160;2022-12-10T12:49:29;93062.69;;;14.55;100.00
11049;BME280;5577;42.706;23.160;2022-12-10T13:01:40;93061.97;;;14.51;100.00
11049;BME280;5577;42.706;23.160;2022-12-10T13:04:27;93050.13;;;14.56;100.00
11049;BME280;5577;42.706;23.160;2022-12-10T13:13:34;93039.91;;;14.51;100.00
11049;BME280;5577;42.706;23.160;2022-12-10T13:19:29;93025.94;;;14.39;100.00
11049;BME280;5577;42.706;23.160;2022-12-10T13:22:41;93025.94;;;14.39;100.00
11049;BME280;5577;42.706;23.160;2022-12-10T13:25:54;93003.16;;;14.35;100.00
11049;BME280;5577;42.706;23.160;2022-12-10T13:28:53;93002.44;;;14.34;100.00
11049;BME280;5577;42.706;23.160;2022-12-10T13:31:38;92995.66;;;14.26;100.00
11049;BME280;5577;42.706;23.160;2022-12-10T13:34:30;92982.75;;;14.21;100.00
11049;BME280;5577;42.706;23.160;2022-12-10T13:37:29;92977.88;;;14.16;100.00
11049;BME280;5577;42.706;23.160;2022-12-10T13:43:36;92990.38;;;14.23;100.00
11049;BME280;5577;42.706;23.160;2022-12-10T13:47:23;92983.88;;;14.27;100.00
11049;BME280;5577;42.706;23.160;2022-12-10T14:05:14;92981.47;;;14.36;100.00
11049;BME280;5577;42.706;23.160;2022-12-10T14:08:03;92973.53;;;14.33;100.00
11049;BME280;5577;42.706;23.160;2022-12-10T14:10:49;92962.97;;;14.26;100.00
11049;BME280;5577;42.706;23.160;2022-12-10T14:13:47;92968.59;;;14.31;100.00
11049;BME280;5577;42.706;23.160;2022-12-10T14:16:34;92971.22;;;14.35;100.00
11049;BME280;5577;42.706;23.160;2022-12-10T14:19:26;92956.13;;;14.21;100.00
11049;BME280;5577;42.706;23.160;2022-12-10T14:22:21;92945.88;;;14.20;100.00
11049;BME280;5577;42.706;23.160;2022-12-10T14:25:13;92955.75;;;14.23;100.00
11049;BME280;5577;42.706;23.160;2022-12-10T14:27:58;92947.78;;;14.19;100.00
11049;BME280;5577;42.706;23.160;2022-12-10T14:30:44;92960.72;;;14.17;100.00
11049;BME280;5577;42.706;23.160;2022-12-10T14:33:29;92958.91;;;14.11;100.00
11049;BME280;5577;42.706;23.160;2022-12-10T14:36:30;92944.47;;;14.08;100.00
11049;BME280;5577;42.706;23.160;2022-12-10T14:39:35;92946.06;;;14.02;100.00
11049;BME280;5577;42.706;23.160;2022-12-10T14:42:23;92951.47;;;13.92;100.00
11049;BME280;5577;42.706;23.160;2022-12-10T14:45:13;92951.22;;;13.79;100.00
11049;BME280;5577;42.706;23.160;2022-12-10T14:48:00;92958.91;;;13.70;100.00
11049;BME280;5577;42.706;23.160;2022-12-10T14:50:45;92945.22;;;13.68;100.00
11049;BME280;5577;42.706;23.160;2022-12-10T14:53:31;92963.19;;;13.57;100.00
11049;BME280;5577;42.706;23.160;2022-12-10T14:56:35;92959.78;;;13.53;100.00
11049;BME280;5577;42.706;23.160;2022-12-10T14:59:46;92968.53;;;13.50;100.00
11049;BME280;5577;42.706;23.160;2022-12-10T15:02:31;92952.72;;;13.33;100.00
11049;BME280;5577;42.706;23.160;2022-12-10T15:05:35;92917.28;;;12.99;100.00
11049;BME280;5577;42.706;23.160;2022-12-10T15:08:21;92957.09;;;13.06;100.00
11049;BME280;5577;42.706;23.160;2022-12-10T15:11:05;92966.56;;;13.03;100.00
11049;BME280;5577;42.706;23.160;2022-12-10T15:13:51;92974.16;;;12.98;100.00
11049;BME280;5577;42.706;23.160;2022-12-10T15:16:41;92930.25;;;12.79;100.00
11049;BME280;5577;42.706;23.160;2022-12-10T15:22:19;92951.09;;;12.84;100.00
11049;BME280;5577;42.706;23.160;2022-12-10T15:25:40;92948.16;;;12.68;100.00
11049;BME280;5577;42.706;23.160;2022-12-10T15:28:37;92953.88;;;12.56;100.00
11049;BME280;5577;42.706;23.160;2022-12-10T15:34:11;92946.72;;;12.50;100.00
11049;BME280;5577;42.706;23.160;2022-12-10T15:37:01;92954.69;;;12.43;100.00
11049;BME280;5577;42.706;23.160;2022-12-10T15:39:49;92942.56;;;12.35;100.00
11049;BME280;5577;42.706;23.160;2022-12-10T15:42:44;92919.53;;;12.14;100.00
11049;BME280;5577;42.706;23.160;2022-12-10T15:45:39;92959.28;;;12.32;100.00
11049;BME280;5577;42.706;23.160;2022-12-10T15:48:24;92954.38;;;12.27;100.00
11049;BME280;5577;42.706;23.160;2022-12-10T15:51:10;92961.59;;;12.26;100.00
11049;BME280;5577;42.706;23.160;2022-12-10T15:53:54;92953.97;;;12.28;100.00
11049;BME280;5577;42.706;23.160;2022-12-10T15:56:38;92946.03;;;12.28;100.00
11049;BME280;5577;42.706;23.160;2022-12-10T15:59:22;92949.03;;;12.34;100.00
11049;BME280;5577;42.706;23.160;2022-12-10T16:02:42;92942.97;;;12.37;100.00
11049;BME280;5577;42.706;23.160;2022-12-10T16:05:30;92941.06;;;12.37;100.00
11049;BME280;5577;42.706;23.160;2022-12-10T16:08:23;92902.09;;;12.17;100.00
11049;BME280;5577;42.706;23.160;2022-12-10T16:11:18;92929.31;;;12.35;100.00
11049;BME280;5577;42.706;23.160;2022-12-10T16:14:03;92933.53;;;12.29;100.00
11049;BME280;5577;42.706;23.160;2022-12-10T16:16:47;92921.41;;;12.21;100.00